Time;durP1;ratioP1;P1;durP2;ratioP2;P2;SDS_P1;SDS_P2;PMS_P1;PMS_P2;Temp;Humidity;BMP_temperature;BMP_pressure;BME280_temperature;BME280_humidity;BME280_pressure;Samples;Min_cycle;Max_cycle;Signal;HPM_P1;HPM_P2
2022/05/08 00:00:28;;;;;;;52.00;34.00;;;;;;;11.59;71.70;99226.05;220591;1275;22906;-70
2022/05/08 00:05:30;;;;;;;43.20;30.00;;;;;;;11.54;72.04;99229.64;220716;1274;665730;-72
2022/05/08 00:10:40;;;;;;;44.40;31.80;;;;;;;11.48;72.22;99223.54;220592;1277;25286;-70
2022/05/08 00:15:51;;;;;;;41.00;30.30;;;;;;;11.40;72.30;99223.23;219123;1274;25341;-70
2022/05/08 00:20:58;;;;;;;41.90;28.70;;;;;;;11.33;72.65;99219.05;218992;1274;25438;-71
2022/05/08 00:26:15;;;;;;;41.40;29.90;;;;;;;11.24;72.75;99218.02;219221;1274;25391;-71
2022/05/08 00:31:18;;;;;;;44.70;31.50;;;;;;;11.16;72.64;99216.20;219110;1274;23187;-71
2022/05/08 00:36:21;;;;;;;45.30;31.70;;;;;;;11.08;73.22;99207.95;220724;1274;25259;-72
2022/05/08 00:41:23;;;;;;;43.20;30.60;;;;;;;10.99;73.11;99210.48;219077;1274;22576;-70
2022/05/08 00:46:27;;;;;;;44.70;31.40;;;;;;;10.90;73.28;99210.55;219009;1274;23070;-70
2022/05/08 00:51:37;;;;;;;41.90;30.60;;;;;;;10.80;73.46;99207.14;219203;1274;22535;-71
2022/05/08 00:56:40;;;;;;;44.00;31.60;;;;;;;10.71;73.80;99204.69;219654;1274;24347;-70
2022/05/08 01:01:55;;;;;;;48.50;33.50;;;;;;;10.59;73.74;99199.63;219002;1277;24316;-70
2022/05/08 01:07:11;;;;;;;53.30;34.00;;;;;;;10.43;73.89;99193.29;221154;1274;22922;-71
2022/05/08 01:12:16;;;;;;;51.70;35.20;;;;;;;10.33;74.39;99197.92;219079;1274;22611;-70
2022/05/08 01:17:19;;;;;;;48.60;32.20;;;;;;;10.24;74.44;99196.20;218860;1275;22547;-70
2022/05/08 01:22:47;;;;;;;;;;;;;;;;;;;;;
2022/05/08 01:27:54;;;;;;;49.30;32.80;;;;;;;10.02;74.86;99195.23;219240;1274;22559;-71
2022/05/08 01:33:00;;;;;;;50.20;34.40;;;;;;;9.93;75.09;99191.84;218987;1276;22697;-69
2022/05/08 01:38:16;;;;;;;48.80;34.40;;;;;;;9.85;75.47;99190.30;219585;1274;23929;-70
2022/05/08 01:43:31;;;;;;;51.00;35.20;;;;;;;9.78;75.80;99187.28;219266;1276;22554;-71
2022/05/08 01:48:44;;;;;;;50.80;34.40;;;;;;;9.71;76.06;99188.91;221855;1276;25263;-70
2022/05/08 01:53:46;;;;;;;50.60;34.20;;;;;;;9.64;76.15;99191.81;220502;1276;22751;-71
2022/05/08 01:58:49;;;;;;;48.20;32.40;;;;;;;9.57;76.28;99193.77;220548;1274;25425;-72
2022/05/08 02:04:17;;;;;;;;;;;;;;;;;;;;;
2022/05/08 02:09:30;;;;;;;45.00;32.10;;;;;;;9.43;76.45;99197.64;219141;1274;24804;-70
2022/05/08 02:14:39;;;;;;;50.60;34.40;;;;;;;9.33;76.64;99195.56;220441;1275;25360;-71
2022/05/08 02:19:41;;;;;;;52.60;35.20;;;;;;;9.25;77.24;99199.75;220605;1274;22671;-71
2022/05/08 02:24:43;;;;;;;59.40;37.80;;;;;;;9.14;77.79;99202.38;220527;1279;24220;-71
2022/05/08 02:29:52;;;;;;;60.50;39.20;;;;;;;9.04;77.90;99200.45;220572;1275;22595;-70
2022/05/08 02:34:58;;;;;;;54.50;38.50;;;;;;;8.97;78.14;99206.21;220021;1275;22605;-70
2022/05/08 02:40:13;;;;;;;56.90;39.20;;;;;;;8.94;78.41;99206.92;218989;1276;22548;-71
2022/05/08 02:45:18;;;;;;;58.30;39.80;;;;;;;8.90;78.88;99207.13;220686;1274;22551;-71
2022/05/08 02:50:21;;;;;;;65.20;43.40;;;;;;;8.91;79.70;99211.02;220878;1274;22535;-71
2022/05/08 03:01:11;;;;;;;64.70;42.00;;;;;;;9.01;80.73;99218.20;220713;1277;22554;-70
2022/05/08 03:06:34;;;;;;;59.00;38.90;;;;;;;9.02;80.91;99217.77;219179;1275;22731;-70
2022/05/08 03:11:55;;;;;;;53.50;37.30;;;;;;;9.00;80.99;99220.55;219241;1274;22728;-71
2022/05/08 03:17:00;;;;;;;55.50;37.10;;;;;;;8.96;80.75;99222.10;220659;1275;22582;-71
2022/05/08 03:22:02;;;;;;;54.00;37.70;;;;;;;8.93;80.82;99224.02;220660;1274;22531;-70
2022/05/08 03:27:06;;;;;;;46.90;33.10;;;;;;;8.92;80.86;99231.71;220754;1274;22587;-71
2022/05/08 03:32:10;;;;;;;46.60;31.80;;;;;;;8.93;80.95;99235.35;220766;1275;23165;-71
2022/05/08 03:37:12;;;;;;;41.40;29.80;;;;;;;8.95;80.87;99236.05;220633;1275;22631;-70
2022/05/08 03:42:14;;;;;;;40.40;29.40;;;;;;;9.01;80.88;99236.36;219106;1274;25254;-69
2022/05/08 03:47:20;;;;;;;40.80;29.30;;;;;;;9.11;80.78;99245.13;219160;1277;25131;-71
2022/05/08 03:52:23;;;;;;;34.80;26.60;;;;;;;9.23;80.96;99246.00;220374;1274;22609;-70
2022/05/08 03:57:25;;;;;;;40.10;28.70;;;;;;;9.37;81.05;99248.13;219484;1275;24294;-71
2022/05/08 04:02:34;;;;;;;36.90;26.90;;;;;;;9.56;81.31;99251.16;219162;1279;25438;-70
2022/05/08 04:07:40;;;;;;;39.00;29.50;;;;;;;9.76;81.49;99252.40;220202;1274;22558;-70
2022/05/08 04:12:43;;;;;;;38.70;28.40;;;;;;;9.92;81.12;99258.64;220877;1277;22972;-70
2022/05/08 04:17:47;;;;;;;39.30;29.10;;;;;;;10.05;80.91;99263.89;221102;1274;24312;-71
2022/05/08 04:28:19;;;;;;;45.90;33.20;;;;;;;10.48;81.25;99261.17;220775;1274;22537;-70
2022/05/08 04:33:21;;;;;;;48.30;35.30;;;;;;;10.68;80.99;99260.70;220999;1275;24988;-70
2022/05/08 04:38:26;;;;;;;44.30;33.50;;;;;;;10.86;81.01;99259.52;220645;1274;23425;-71
2022/05/08 04:43:28;;;;;;;47.40;34.60;;;;;;;11.01;80.52;99260.39;220556;1274;22535;-70
2022/05/08 04:48:30;;;;;;;43.00;33.80;;;;;;;11.13;80.47;99263.84;220468;1274;22540;-71
2022/05/08 04:53:32;;;;;;;40.70;32.90;;;;;;;11.28;80.14;99265.01;220625;1274;25361;-70
2022/05/08 04:58:35;;;;;;;38.60;31.50;;;;;;;11.49;80.36;99267.89;220517;1274;24382;-70
2022/05/08 05:03:37;;;;;;;42.20;32.30;;;;;;;11.72;80.30;99275.52;218971;1275;24227;-70
2022/05/08 05:08:39;;;;;;;41.80;32.60;;;;;;;11.96;79.83;99279.59;219476;1277;25283;-70
2022/05/08 05:13:42;;;;;;;39.20;31.60;;;;;;;12.11;79.64;99280.62;219987;1274;25357;-71
2022/05/08 05:18:44;;;;;;;38.10;30.20;;;;;;;12.26;79.41;99283.17;218976;1275;24266;-71
2022/05/08 05:23:47;;;;;;;36.60;29.00;;;;;;;12.42;79.17;99286.88;219107;1277;24231;-72
2022/05/08 05:28:49;;;;;;;36.10;28.30;;;;;;;12.60;79.03;99291.11;220597;1278;22660;-70
2022/05/08 05:34:12;;;;;;;33.70;27.40;;;;;;;12.79;78.78;99293.86;220651;1275;22578;-70
2022/05/08 05:39:14;;;;;;;35.70;28.90;;;;;;;12.92;77.97;99294.48;220599;1274;26634;-70
2022/05/08 05:44:16;;;;;;;33.80;28.10;;;;;;;13.04;77.75;99297.96;220656;1274;22559;-70
2022/05/08 05:49:19;;;;;;;32.80;25.70;;;;;;;13.21;77.59;99297.45;220607;1278;22537;-70
2022/05/08 05:54:23;;;;;;;33.10;26.90;;;;;;;13.39;77.29;99301.60;220757;1274;22539;-70
2022/05/08 05:59:26;;;;;;;28.70;23.50;;;;;;;13.61;76.91;99300.49;220994;1277;22589;-70
2022/05/08 06:04:40;;;;;;;28.10;22.50;;;;;;;13.81;76.16;99302.95;220538;1275;22635;-70
2022/05/08 06:09:44;;;;;;;28.60;24.20;;;;;;;13.92;75.64;99298.23;219227;1274;25372;-71
2022/05/08 06:14:50;;;;;;;27.20;23.00;;;;;;;13.98;75.60;99299.80;220773;1275;22580;-70
2022/05/08 06:19:58;;;;;;;29.60;24.00;;;;;;;14.12;75.49;99300.39;220759;1275;23282;-70
2022/05/08 06:25:03;;;;;;;22.50;19.50;;;;;;;14.29;75.02;99299.73;220624;1274;22534;-70
2022/05/08 06:30:09;;;;;;;23.70;18.70;;;;;;;14.47;74.05;99299.08;219300;1273;22552;-71
2022/05/08 06:35:25;;;;;;;21.60;18.80;;;;;;;14.67;73.01;99300.06;219215;1274;22582;-70
2022/05/08 06:40:47;;;;;;;20.40;18.20;;;;;;;14.87;72.24;99302.50;219658;1274;22818;-70
2022/05/08 06:46:03;;;;;;;22.70;19.40;;;;;;;15.07;71.27;99301.52;219292;1275;22620;-70
2022/05/08 06:51:34;;;;;;;22.00;18.80;;;;;;;15.32;70.81;99301.14;220919;1277;23068;-72
2022/05/08 06:56:48;;;;;;;17.20;15.40;;;;;;;15.60;70.14;99301.01;219213;1274;22534;-70
2022/05/08 07:01:55;;;;;;;19.20;15.80;;;;;;;15.84;68.80;99305.56;222630;1274;22554;-70
2022/05/08 07:07:01;;;;;;;15.40;13.60;;;;;;;16.11;68.38;99307.61;220751;1275;22777;-71
2022/05/08 07:12:03;;;;;;;17.20;14.40;;;;;;;16.32;66.97;99310.33;220740;1274;22777;-71
2022/05/08 07:17:06;;;;;;;18.00;15.60;;;;;;;16.56;66.87;99310.98;220614;1277;22546;-71
2022/05/08 07:22:11;;;;;;;17.00;14.10;;;;;;;16.91;66.37;99310.42;220715;1274;22735;-71
2022/05/08 07:27:16;;;;;;;17.70;14.30;;;;;;;17.21;65.14;99313.79;220555;1276;22538;-71
2022/05/08 07:32:18;;;;;;;19.80;15.70;;;;;;;17.44;63.78;99315.92;220775;1274;22535;-71
2022/05/08 07:37:29;;;;;;;18.40;14.50;;;;;;;17.63;62.32;99321.25;220785;1274;22559;-70
2022/05/08 07:42:37;;;;;;;20.00;15.90;;;;;;;17.83;61.85;99323.70;220829;1274;24144;-70
2022/05/08 07:47:40;;;;;;;17.80;15.40;;;;;;;18.11;61.72;99325.19;220857;1275;22676;-70
2022/05/08 07:52:48;;;;;;;17.60;14.70;;;;;;;18.29;60.08;99327.45;220562;1278;23839;-70
2022/05/08 07:57:53;;;;;;;17.90;14.10;;;;;;;18.40;59.37;99331.05;220728;1275;22580;-71
2022/05/08 08:02:55;;;;;;;12.40;10.10;;;;;;;18.62;59.12;99328.34;219154;1275;22563;-71
2022/05/08 08:07:57;;;;;;;15.10;12.50;;;;;;;18.78;57.40;99330.74;219379;1274;24178;-70
2022/05/08 08:12:59;;;;;;;16.10;14.10;;;;;;;18.97;57.86;99333.33;219960;1277;22663;-71
2022/05/08 08:18:05;;;;;;;14.20;12.70;;;;;;;19.22;57.88;99332.65;220877;1275;26480;-72
2022/05/08 08:23:08;;;;;;;15.50;13.40;;;;;;;19.45;57.71;99331.88;220786;1275;22537;-71
2022/05/08 08:28:10;;;;;;;12.70;11.20;;;;;;;19.59;56.60;99334.33;220642;1274;22931;-71
2022/05/08 08:33:13;;;;;;;13.10;11.40;;;;;;;19.73;56.27;99337.23;220644;1274;22611;-71
2022/05/08 08:38:15;;;;;;;12.40;11.10;;;;;;;19.88;55.56;99339.62;220590;1277;22569;-71
2022/05/08 08:43:19;;;;;;;11.80;10.20;;;;;;;19.99;54.77;99338.28;220618;1276;22563;-71
2022/05/08 08:48:30;;;;;;;10.40;8.80;;;;;;;20.12;53.85;99335.89;220746;1276;23624;-70
2022/05/08 08:53:35;;;;;;;5.70;5.10;;;;;;;20.25;52.85;99338.59;220572;1277;25556;-70
2022/05/08 08:58:37;;;;;;;6.60;5.60;;;;;;;20.33;50.76;99339.52;220767;1274;23266;-71
2022/05/08 09:03:43;;;;;;;8.40;6.40;;;;;;;20.41;50.44;99339.86;220731;1274;23334;-71
2022/05/08 09:08:45;;;;;;;7.90;6.50;;;;;;;20.59;50.29;99342.06;220608;1274;22612;-71
2022/05/08 09:13:51;;;;;;;7.40;6.60;;;;;;;20.74;49.32;99342.54;220534;1274;22752;-71
2022/05/08 09:18:53;;;;;;;7.50;6.70;;;;;;;20.86;48.37;99338.30;220740;1276;22574;-71
2022/05/08 09:24:12;;;;;;;7.40;6.60;;;;;;;20.86;47.22;99340.56;220661;1275;25396;-71
2022/05/08 09:29:24;;;;;;;7.90;6.70;;;;;;;21.09;47.44;99336.15;220566;1277;22547;-71
2022/05/08 09:34:26;;;;;;;7.40;6.60;;;;;;;21.37;47.31;99334.55;220777;1276;22667;-71
2022/05/08 09:39:29;;;;;;;6.90;5.60;;;;;;;21.69;46.60;99335.57;220792;1274;26007;-70
2022/05/08 09:44:35;;;;;;;7.40;6.60;;;;;;;22.07;45.79;99332.30;220850;1274;24462;-70
2022/05/08 09:49:41;;;;;;;7.70;6.90;;;;;;;22.48;45.29;99330.19;220760;1274;22602;-71
2022/05/08 09:54:43;;;;;;;9.70;8.30;;;;;;;22.92;44.65;99332.27;220563;1276;24212;-70
2022/05/08 09:59:46;;;;;;;10.00;9.00;;;;;;;23.22;43.30;99328.95;220804;1274;22872;-70
2022/05/08 10:04:48;;;;;;;9.50;8.60;;;;;;;23.41;43.30;99325.64;220688;1274;22618;-70
2022/05/08 10:15:48;;;;;;;13.80;12.40;;;;;;;23.24;42.41;99321.15;220380;1277;25027;-70
2022/05/08 10:21:08;;;;;;;13.70;12.40;;;;;;;22.96;43.23;99316.83;220532;1276;22579;-70
2022/05/08 10:26:18;;;;;;;11.90;10.60;;;;;;;22.92;43.41;99317.90;220902;1276;24233;-71
2022/05/08 10:31:41;;;;;;;10.40;9.30;;;;;;;22.81;43.15;99316.04;220572;1276;25362;-71
2022/05/08 10:37:26;;;;;;;12.70;11.40;;;;;;;22.73;42.86;99311.52;220986;1274;24335;-70
2022/05/08 10:42:29;;;;;;;13.50;12.20;;;;;;;22.79;42.28;99308.81;222029;1274;22615;-70
2022/05/08 10:47:33;;;;;;;13.10;11.80;;;;;;;22.81;42.09;99304.56;221406;1274;24265;-70
2022/05/08 10:52:41;;;;;;;12.70;11.50;;;;;;;22.88;41.76;99301.36;220636;1274;22593;-70
2022/05/08 10:57:50;;;;;;;11.80;10.60;;;;;;;22.98;41.69;99289.02;220666;1274;22549;-71
2022/05/08 11:02:55;;;;;;;9.70;8.50;;;;;;;23.09;40.81;99288.13;220775;1274;22563;-69
2022/05/08 11:08:24;;;;;;;10.50;9.00;;;;;;;23.19;40.45;99277.50;221428;1274;26441;-71
2022/05/08 11:13:36;;;;;;;10.20;9.20;;;;;;;23.24;40.13;99269.77;220752;1274;22601;-69
2022/05/08 11:18:39;;;;;;;10.00;8.30;;;;;;;23.31;40.11;99273.66;221693;1274;25411;-71
2022/05/08 11:23:44;;;;;;;9.70;7.70;;;;;;;23.26;39.09;99273.11;221141;1274;22574;-71
2022/05/08 11:28:49;;;;;;;8.70;7.80;;;;;;;23.07;39.24;99270.06;221157;1274;23011;-70
2022/05/08 11:39:33;;;;;;;9.20;7.30;;;;;;;23.23;39.29;99254.30;220756;1274;22725;-69
2022/05/08 11:45:08;;;;;;;6.80;5.70;;;;;;;23.48;39.32;99250.53;221409;1274;22594;-70
2022/05/08 11:50:10;;;;;;;5.30;4.70;;;;;;;23.68;39.56;99250.42;219279;1274;25575;-72
2022/05/08 11:55:14;;;;;;;6.20;5.60;;;;;;;23.70;38.83;99251.30;220866;1274;26691;-70
2022/05/08 12:00:16;;;;;;;5.80;5.30;;;;;;;23.56;37.98;99257.55;220843;1273;22704;-70
2022/05/08 12:05:23;;;;;;;5.90;5.10;;;;;;;23.49;38.09;99257.90;220514;1274;233546;-71
2022/05/08 12:10:37;;;;;;;5.70;5.10;;;;;;;23.51;38.20;99251.75;220741;1274;24403;-71
2022/05/08 12:15:39;;;;;;;6.20;5.50;;;;;;;23.63;38.20;99251.89;220715;1275;25370;-72
2022/05/08 12:20:42;;;;;;;5.80;5.20;;;;;;;23.77;38.03;99247.91;220751;1274;23398;-70
2022/05/08 12:25:46;;;;;;;6.10;5.50;;;;;;;23.84;38.08;99242.55;219138;1274;22562;-71
2022/05/08 12:30:49;;;;;;;5.60;5.10;;;;;;;23.91;37.63;99243.40;220756;1274;24269;-70
2022/05/08 12:35:51;;;;;;;5.10;4.50;;;;;;;23.85;37.84;99239.59;220891;1273;25369;-69
2022/05/08 12:40:58;;;;;;;5.30;4.80;;;;;;;23.84;37.67;99232.84;219330;1273;24270;-70
2022/05/08 12:46:01;;;;;;;6.30;5.30;;;;;;;23.92;38.08;99229.41;220775;1275;26391;-71
2022/05/08 12:51:11;;;;;;;5.60;5.10;;;;;;;23.96;37.36;99218.21;220754;1275;22802;-70
2022/05/08 12:56:19;;;;;;;6.00;5.00;;;;;;;23.84;36.67;99216.38;220766;1275;23062;-70
2022/05/08 13:01:21;;;;;;;5.00;4.60;;;;;;;23.83;36.87;99211.98;220874;1275;25420;-70
2022/05/08 13:06:23;;;;;;;5.00;4.60;;;;;;;23.67;36.51;99206.10;220934;1274;24188;-71
2022/05/08 13:11:26;;;;;;;5.00;4.50;;;;;;;23.45;36.77;99203.92;220657;1274;22694;-71
2022/05/08 13:16:28;;;;;;;4.80;4.40;;;;;;;23.30;36.56;99199.00;220744;1275;25301;-71
2022/05/08 13:21:36;;;;;;;5.20;4.70;;;;;;;23.21;36.69;99196.41;220613;1274;22628;-71
2022/05/08 13:26:38;;;;;;;4.60;4.10;;;;;;;23.26;36.85;99196.34;220679;1277;22545;-70
2022/05/08 13:31:41;;;;;;;4.60;4.20;;;;;;;23.35;36.56;99197.20;219194;1274;25477;-70
2022/05/08 13:36:45;;;;;;;5.20;4.60;;;;;;;23.56;36.59;99198.96;220902;1274;23080;-70
2022/05/08 13:41:47;;;;;;;4.30;3.90;;;;;;;23.71;36.26;99200.77;220919;1274;25544;-70
2022/05/08 13:47:00;;;;;;;5.10;4.60;;;;;;;23.85;35.52;99191.52;220892;1273;24229;-70
2022/05/08 13:52:03;;;;;;;4.10;3.70;;;;;;;24.00;35.66;99185.20;220722;1274;22559;-70
2022/05/08 13:57:07;;;;;;;3.70;3.40;;;;;;;24.22;35.33;99189.98;220881;1275;24304;-70
2022/05/08 14:02:13;;;;;;;4.00;3.70;;;;;;;24.44;35.13;99180.33;220964;1274;23806;-70
2022/05/08 14:07:16;;;;;;;4.00;3.70;;;;;;;24.47;34.76;99182.71;220606;1274;22551;-70
2022/05/08 14:12:31;;;;;;;4.80;3.70;;;;;;;24.46;34.29;99179.80;219402;1274;22544;-70
2022/05/08 14:17:34;;;;;;;5.40;3.40;;;;;;;24.29;34.00;99179.52;219466;1275;22635;-70
2022/05/08 14:22:41;;;;;;;3.80;3.50;;;;;;;24.23;34.49;99176.46;220759;1274;22550;-70
2022/05/08 14:27:53;;;;;;;4.00;3.30;;;;;;;24.33;34.85;99175.27;220681;1274;22605;-69
2022/05/08 14:38:16;;;;;;;3.30;3.00;;;;;;;24.29;34.84;99171.91;220677;1274;26165;-71
2022/05/08 14:43:22;;;;;;;3.20;2.90;;;;;;;24.23;34.86;99169.42;220456;1274;22710;-70
2022/05/08 14:48:26;;;;;;;3.20;2.90;;;;;;;24.11;34.58;99163.08;220701;1274;22558;-71
2022/05/08 14:53:32;;;;;;;3.10;2.70;;;;;;;23.93;35.16;99171.36;221653;1274;23080;-70
2022/05/08 14:58:34;;;;;;;2.90;2.60;;;;;;;23.89;35.05;99167.85;220886;1274;22637;-70
2022/05/08 15:03:37;;;;;;;3.30;3.00;;;;;;;23.74;35.35;99173.38;220913;1274;22576;-72
2022/05/08 15:08:42;;;;;;;3.10;2.80;;;;;;;23.57;35.49;99174.20;220655;1275;25548;-70
2022/05/08 15:13:44;;;;;;;3.00;2.80;;;;;;;23.61;35.66;99164.05;219687;1274;22576;-69
2022/05/08 15:18:50;;;;;;;3.10;2.60;;;;;;;23.79;35.39;99171.90;219123;1274;22652;-70
2022/05/08 15:24:09;;;;;;;5.10;3.60;;;;;;;23.90;35.61;99178.42;219175;1276;22613;-71
2022/05/08 15:29:11;;;;;;;3.80;3.40;;;;;;;23.78;36.04;99175.16;219019;1274;22563;-70
2022/05/08 15:34:16;;;;;;;4.00;3.60;;;;;;;23.58;36.87;99181.66;220782;1275;22566;-70
2022/05/08 15:39:19;;;;;;;5.30;3.80;;;;;;;23.39;36.87;99194.77;221775;1273;22699;-69
2022/05/08 15:44:21;;;;;;;4.60;4.00;;;;;;;23.16;37.40;99200.29;219194;1275;22583;-69
2022/05/08 15:49:23;;;;;;;6.70;4.20;;;;;;;23.00;37.89;99198.65;220125;1274;22629;-69
2022/05/08 15:54:26;;;;;;;4.10;3.70;;;;;;;22.89;38.53;99195.23;219202;1274;22657;-71
2022/05/08 15:59:28;;;;;;;4.20;3.70;;;;;;;22.85;38.34;99203.98;220652;1274;22741;-71
2022/05/08 16:04:47;;;;;;;4.00;3.60;;;;;;;22.68;38.47;99215.68;220616;1275;23515;-70
2022/05/08 16:09:51;;;;;;;4.10;3.40;;;;;;;22.54;38.73;99217.49;221095;1276;22633;-69
2022/05/08 16:25:42;;;;;;;3.80;3.40;;;;;;;22.23;39.55;99227.70;220712;1274;22598;-71
2022/05/08 16:30:44;;;;;;;3.80;3.40;;;;;;;22.27;39.62;99238.48;220836;1276;22674;-70
2022/05/08 16:35:49;;;;;;;4.10;3.20;;;;;;;22.22;39.54;99238.82;219473;1275;23111;-71
2022/05/08 16:40:52;;;;;;;3.30;3.00;;;;;;;22.04;39.89;99236.24;220521;1276;22485;-69
2022/05/08 16:45:55;;;;;;;4.00;3.20;;;;;;;21.88;40.10;99240.69;220936;1276;22659;-70
2022/05/08 16:50:58;;;;;;;3.40;3.00;;;;;;;21.67;40.54;99237.93;219127;1274;23295;-70
2022/05/08 16:56:00;;;;;;;4.00;3.20;;;;;;;21.54;40.79;99242.64;219201;1276;22579;-71
2022/05/08 17:01:02;;;;;;;2.90;2.60;;;;;;;21.41;40.87;99248.45;220559;1274;25373;-69
2022/05/08 17:06:05;;;;;;;3.50;2.90;;;;;;;21.25;40.96;99249.66;219197;1274;22821;-71
2022/05/08 17:11:07;;;;;;;3.80;3.20;;;;;;;21.01;41.21;99251.50;221491;1274;24299;-71
2022/05/08 17:16:10;;;;;;;3.90;3.40;;;;;;;20.77;41.53;99256.44;219195;1275;22541;-70
2022/05/08 17:21:12;;;;;;;3.80;3.10;;;;;;;20.52;42.02;99260.80;220664;1274;22586;-70
2022/05/08 17:26:18;;;;;;;3.60;3.10;;;;;;;20.31;42.32;99265.47;220822;1275;22711;-70
2022/05/08 17:31:24;;;;;;;4.20;3.10;;;;;;;20.13;42.87;99272.43;220798;1276;22568;-70
2022/05/08 17:36:30;;;;;;;;;;;;;;;19.93;43.30;99280.20;219500;1274;24297;-70
2022/05/08 17:41:32;;;;;;;2.90;2.60;;;;;;;19.70;43.98;99288.79;219479;1275;22801;-70
2022/05/08 17:46:35;;;;;;;3.30;2.60;;;;;;;19.47;44.16;99292.86;219179;1274;22711;-71
2022/05/08 17:51:41;;;;;;;4.10;2.60;;;;;;;19.23;44.71;99303.98;220048;1276;25283;-70
2022/05/08 17:56:44;;;;;;;3.50;2.80;;;;;;;19.00;45.32;99314.77;218997;1274;25930;-71
2022/05/08 18:07:41;;;;;;;5.50;3.30;;;;;;;18.52;46.32;99330.20;220724;1274;22559;-71
2022/05/08 18:12:43;;;;;;;4.30;3.60;;;;;;;18.30;46.66;99335.63;220673;1274;22717;-70
2022/05/08 18:17:46;;;;;;;4.50;3.30;;;;;;;18.11;46.93;99340.69;221084;1274;24229;-70
2022/05/08 18:22:49;;;;;;;4.50;3.20;;;;;;;17.90;47.14;99343.39;220676;1275;24288;-70
2022/05/08 18:27:51;;;;;;;3.50;2.50;;;;;;;17.71;47.41;99349.35;219086;1275;22766;-70
2022/05/08 18:32:57;;;;;;;3.00;2.40;;;;;;;17.54;47.75;99351.36;219217;1274;22910;-71
2022/05/08 18:38:00;;;;;;;3.70;2.70;;;;;;;17.41;47.92;99359.91;220166;1275;22731;-70
2022/05/08 18:43:04;;;;;;;3.80;2.40;;;;;;;17.32;48.26;99369.17;219799;1274;25948;-70
2022/05/08 18:48:11;;;;;;;4.30;2.80;;;;;;;17.22;48.40;99375.10;219538;1275;24119;-70
2022/05/08 18:53:13;;;;;;;3.70;2.90;;;;;;;17.14;48.40;99373.88;219188;1274;22808;-70
2022/05/08 18:58:16;;;;;;;3.90;2.90;;;;;;;17.07;48.30;99382.86;219440;1274;22638;-70
2022/05/08 19:03:19;;;;;;;4.80;2.90;;;;;;;17.00;48.22;99384.27;219097;1276;25356;-71
2022/05/08 19:08:22;;;;;;;5.10;3.00;;;;;;;16.91;48.22;99387.23;220724;1277;22713;-71
2022/05/08 19:13:24;;;;;;;7.80;4.00;;;;;;;16.81;48.51;99392.27;220658;1277;25698;-70
2022/05/08 19:18:26;;;;;;;4.50;3.70;;;;;;;16.67;48.64;99400.12;220614;1277;24351;-70
2022/05/08 19:23:28;;;;;;;6.20;3.90;;;;;;;16.54;48.94;99405.56;219281;1275;25260;-71
2022/05/08 19:28:40;;;;;;;6.20;4.30;;;;;;;16.43;49.15;99413.96;219233;1277;26485;-70
2022/05/08 19:39:03;;;;;;;5.40;4.10;;;;;;;16.25;49.43;99424.85;219708;1274;24271;-71
2022/05/08 19:44:05;;;;;;;7.40;4.40;;;;;;;16.19;49.75;99424.47;220825;1275;25392;-71
2022/05/08 19:49:08;;;;;;;6.20;4.00;;;;;;;16.14;49.88;99424.06;220843;1274;25404;-70
2022/05/08 19:54:10;;;;;;;7.60;4.10;;;;;;;16.07;50.26;99430.19;220855;1275;24250;-71
2022/05/08 19:59:12;;;;;;;6.60;3.60;;;;;;;15.99;50.36;99435.58;220828;1275;23010;-71
2022/05/08 20:04:14;;;;;;;5.40;3.80;;;;;;;15.89;50.68;99439.11;220694;1276;22547;-70
2022/05/08 20:09:34;;;;;;;6.30;3.60;;;;;;;15.78;50.81;99440.66;220835;1274;23060;-70
2022/05/08 20:15:00;;;;;;;3.90;2.90;;;;;;;15.66;51.02;99445.45;220788;1277;24259;-71
2022/05/08 20:25:38;;;;;;;3.50;2.80;;;;;;;15.51;51.52;99454.10;220759;1275;22540;-71
2022/05/08 20:30:40;;;;;;;4.10;3.00;;;;;;;15.47;51.71;99454.17;220769;1274;25846;-71
2022/05/08 20:35:42;;;;;;;3.60;2.40;;;;;;;15.45;51.85;99455.85;220854;1277;23462;-69
2022/05/08 20:40:45;;;;;;;3.20;2.50;;;;;;;15.44;51.97;99456.41;219245;1274;22725;-71
2022/05/08 20:45:47;;;;;;;3.30;2.30;;;;;;;15.44;52.17;99459.40;219630;1275;25528;-71
2022/05/08 20:50:50;;;;;;;2.90;2.30;;;;;;;15.44;52.38;99467.27;219856;1274;22545;-73
2022/05/08 20:55:52;;;;;;;2.70;2.00;;;;;;;15.43;52.53;99467.52;220892;1274;25247;-73
2022/05/08 21:00:54;;;;;;;2.30;2.00;;;;;;;15.44;52.70;99472.13;219275;1274;22620;-70
2022/05/08 21:11:40;;;;;;;2.50;1.90;;;;;;;15.49;53.01;99480.88;219230;1274;22890;-70
2022/05/08 21:16:46;;;;;;;3.40;2.10;;;;;;;15.50;53.24;99482.16;219130;1274;22570;-69
2022/05/08 21:21:48;;;;;;;2.10;1.90;;;;;;;15.49;53.20;99483.79;219248;1274;26977;-70
2022/05/08 21:26:51;;;;;;;2.90;2.40;;;;;;;15.49;53.45;99487.05;219203;1274;23999;-69
2022/05/08 21:32:11;;;;;;;3.00;2.30;;;;;;;15.47;53.62;99486.96;220751;1277;22646;-70
2022/05/08 21:37:23;;;;;;;2.90;2.60;;;;;;;15.46;53.93;99493.59;220661;1275;23290;-71
2022/05/08 21:42:25;;;;;;;3.20;2.60;;;;;;;15.44;54.22;99497.89;220840;1275;22921;-69
2022/05/08 21:47:33;;;;;;;3.60;2.70;;;;;;;15.41;54.49;99497.26;219263;1275;22755;-69
2022/05/08 21:52:38;;;;;;;3.00;2.70;;;;;;;15.37;54.57;99505.15;220777;1274;22717;-70
2022/05/08 21:57:46;;;;;;;3.30;2.60;;;;;;;15.34;54.79;99505.10;220699;1278;22662;-69
2022/05/08 22:02:48;;;;;;;4.10;2.70;;;;;;;15.32;55.12;99506.56;219201;1274;24225;-69
2022/05/08 22:08:00;;;;;;;2.60;2.40;;;;;;;15.27;55.44;99512.92;219186;1278;22632;-70
2022/05/08 22:13:05;;;;;;;3.90;2.80;;;;;;;15.21;55.66;99513.86;219539;1275;22554;-70
2022/05/08 22:23:38;;;;;;;4.30;3.30;;;;;;;15.17;56.01;99514.58;220771;1275;22547;-70
2022/05/08 22:28:49;;;;;;;5.60;3.80;;;;;;;15.16;56.19;99514.71;219198;1275;24200;-70
2022/05/08 22:33:59;;;;;;;5.90;4.00;;;;;;;15.14;56.32;99518.48;219992;1274;22567;-70
2022/05/08 22:39:15;;;;;;;7.40;4.00;;;;;;;15.12;56.46;99521.43;221868;1274;24273;-71
2022/05/08 22:44:23;;;;;;;6.70;4.10;;;;;;;15.09;56.57;99516.14;220500;1275;26153;-70
2022/05/08 22:49:26;;;;;;;7.00;4.40;;;;;;;15.07;56.69;99520.34;220592;1274;22586;-70
2022/05/08 22:54:33;;;;;;;5.20;4.00;;;;;;;15.04;56.97;99519.96;220670;1275;22601;-71
2022/05/08 22:59:35;;;;;;;6.80;4.10;;;;;;;15.01;57.06;99513.54;219094;1274;23297;-71
2022/05/08 23:04:51;;;;;;;5.00;4.30;;;;;;;14.98;57.23;99512.09;220783;1274;22572;-71
2022/05/08 23:10:00;;;;;;;5.60;4.30;;;;;;;14.94;57.39;99509.80;220704;1275;22633;-71
2022/05/08 23:15:27;;;;;;;5.40;4.50;;;;;;;14.91;57.60;99512.17;221164;1275;22562;-70
2022/05/08 23:20:42;;;;;;;5.20;4.20;;;;;;;14.85;57.79;99507.80;220787;1274;22573;-70
2022/05/08 23:25:48;;;;;;;6.70;4.40;;;;;;;14.81;57.95;99510.77;219694;1274;24231;-69
2022/05/08 23:31:00;;;;;;;5.20;4.10;;;;;;;14.75;58.27;99509.08;220240;1274;22557;-70
2022/05/08 23:36:14;;;;;;;7.70;4.70;;;;;;;14.69;58.54;99518.50;221123;1274;24355;-70
2022/05/08 23:41:20;;;;;;;6.60;4.70;;;;;;;14.61;58.72;99516.52;220669;1274;24225;-71
2022/05/08 23:46:22;;;;;;;6.00;4.50;;;;;;;14.55;58.95;99514.52;220540;1275;22534;-73
2022/05/08 23:51:35;;;;;;;5.50;4.40;;;;;;;14.50;59.09;99515.46;220821;1274;24231;-70
2022/05/08 23:56:38;;;;;;;6.80;4.60;;;;;;;14.44;59.23;99514.92;220645;1275;24121;-70
